sensor_id;sensor_type;location;lat;lon;timestamp;P1;durP1;ratioP1;P2;durP2;ratioP2
51566;SDS011;37657;53.182;5.638;2023-12-28T00:02:06;18.17;;;6.90;;
51566;SDS011;37657;53.182;5.638;2023-12-28T00:04:32;14.77;;;6.53;;
51566;SDS011;37657;53.182;5.638;2023-12-28T00:06:59;17.67;;;5.57;;
51566;SDS011;37657;53.182;5.638;2023-12-28T00:09:27;12.65;;;5.97;;
51566;SDS011;37657;53.182;5.638;2023-12-28T00:11:52;12.32;;;5.82;;
51566;SDS011;37657;53.182;5.638;2023-12-28T00:14:18;13.05;;;4.78;;
51566;SDS011;37657;53.182;5.638;2023-12-28T00:16:44;13.43;;;5.50;;
51566;SDS011;37657;53.182;5.638;2023-12-28T00:19:09;11.65;;;6.68;;
51566;SDS011;37657;53.182;5.638;2023-12-28T00:21:35;10.38;;;4.55;;
51566;SDS011;37657;53.182;5.638;2023-12-28T00:24:01;15.50;;;6.50;;
51566;SDS011;37657;53.182;5.638;2023-12-28T00:26:26;10.02;;;5.40;;
51566;SDS011;37657;53.182;5.638;2023-12-28T00:28:52;11.95;;;6.32;;
51566;SDS011;37657;53.182;5.638;2023-12-28T00:31:18;16.05;;;6.45;;
51566;SDS011;37657;53.182;5.638;2023-12-28T00:33:43;11.32;;;5.78;;
51566;SDS011;37657;53.182;5.638;2023-12-28T00:36:09;9.48;;;5.30;;
51566;SDS011;37657;53.182;5.638;2023-12-28T00:38:35;11.15;;;5.45;;
51566;SDS011;37657;53.182;5.638;2023-12-28T00:41:00;11.10;;;6.07;;
51566;SDS011;37657;53.182;5.638;2023-12-28T00:43:26;17.58;;;6.45;;
51566;SDS011;37657;53.182;5.638;2023-12-28T00:45:52;28.67;;;7.05;;
51566;SDS011;37657;53.182;5.638;2023-12-28T00:48:17;11.18;;;5.57;;
51566;SDS011;37657;53.182;5.638;2023-12-28T00:50:43;24.85;;;7.72;;
51566;SDS011;37657;53.182;5.638;2023-12-28T00:53:08;11.38;;;5.38;;
51566;SDS011;37657;53.182;5.638;2023-12-28T00:55:34;18.75;;;6.05;;
51566;SDS011;37657;53.182;5.638;2023-12-28T00:58:00;14.70;;;5.82;;
51566;SDS011;37657;53.182;5.638;2023-12-28T01:00:26;15.82;;;6.35;;
51566;SDS011;37657;53.182;5.638;2023-12-28T01:02:51;21.33;;;6.88;;
51566;SDS011;37657;53.182;5.638;2023-12-28T01:05:17;9.10;;;5.18;;
51566;SDS011;37657;53.182;5.638;2023-12-28T01:07:43;18.33;;;7.97;;
51566;SDS011;37657;53.182;5.638;2023-12-28T01:10:08;13.25;;;6.35;;
51566;SDS011;37657;53.182;5.638;2023-12-28T01:12:34;20.48;;;5.70;;
51566;SDS011;37657;53.182;5.638;2023-12-28T01:15:00;17.13;;;6.20;;
51566;SDS011;37657;53.182;5.638;2023-12-28T01:17:25;17.35;;;6.43;;
51566;SDS011;37657;53.182;5.638;2023-12-28T01:19:51;17.52;;;6.65;;
51566;SDS011;37657;53.182;5.638;2023-12-28T01:22:16;22.00;;;6.70;;
51566;SDS011;37657;53.182;5.638;2023-12-28T01:24:45;14.63;;;5.68;;
51566;SDS011;37657;53.182;5.638;2023-12-28T01:27:12;17.98;;;7.47;;
51566;SDS011;37657;53.182;5.638;2023-12-28T01:29:37;20.02;;;7.32;;
51566;SDS011;37657;53.182;5.638;2023-12-28T01:32:03;21.67;;;7.63;;
51566;SDS011;37657;53.182;5.638;2023-12-28T01:34:29;12.98;;;6.53;;
51566;SDS011;37657;53.182;5.638;2023-12-28T01:36:55;16.10;;;7.40;;
51566;SDS011;37657;53.182;5.638;2023-12-28T01:39:20;15.90;;;6.18;;
51566;SDS011;37657;53.182;5.638;2023-12-28T01:41:46;18.50;;;8.00;;
51566;SDS011;37657;53.182;5.638;2023-12-28T01:44:11;17.92;;;7.47;;
51566;SDS011;37657;53.182;5.638;2023-12-28T01:46:37;14.70;;;7.05;;
51566;SDS011;37657;53.182;5.638;2023-12-28T01:49:03;13.32;;;6.90;;
51566;SDS011;37657;53.182;5.638;2023-12-28T01:51:30;13.07;;;6.53;;
51566;SDS011;37657;53.182;5.638;2023-12-28T01:53:56;12.40;;;6.55;;
51566;SDS011;37657;53.182;5.638;2023-12-28T01:56:22;26.10;;;9.80;;
51566;SDS011;37657;53.182;5.638;2023-12-28T01:58:49;14.25;;;6.32;;
51566;SDS011;37657;53.182;5.638;2023-12-28T02:01:17;28.77;;;7.97;;
51566;SDS011;37657;53.182;5.638;2023-12-28T02:03:43;16.33;;;7.75;;
51566;SDS011;37657;53.182;5.638;2023-12-28T02:06:10;23.83;;;7.25;;
51566;SDS011;37657;53.182;5.638;2023-12-28T02:08:37;18.33;;;7.55;;
51566;SDS011;37657;53.182;5.638;2023-12-28T02:11:03;16.65;;;6.90;;
51566;SDS011;37657;53.182;5.638;2023-12-28T02:13:29;16.05;;;6.43;;
51566;SDS011;37657;53.182;5.638;2023-12-28T02:15:56;15.00;;;6.95;;
51566;SDS011;37657;53.182;5.638;2023-12-28T02:18:30;17.88;;;6.93;;
51566;SDS011;37657;53.182;5.638;2023-12-28T02:21:03;18.10;;;7.82;;
51566;SDS011;37657;53.182;5.638;2023-12-28T02:23:32;12.88;;;6.85;;
51566;SDS011;37657;53.182;5.638;2023-12-28T02:25:58;24.65;;;7.35;;
51566;SDS011;37657;53.182;5.638;2023-12-28T02:28:23;14.10;;;5.70;;
51566;SDS011;37657;53.182;5.638;2023-12-28T02:30:49;17.90;;;6.05;;
51566;SDS011;37657;53.182;5.638;2023-12-28T02:33:17;16.98;;;7.55;;
51566;SDS011;37657;53.182;5.638;2023-12-28T02:38:19;15.15;;;5.35;;
51566;SDS011;37657;53.182;5.638;2023-12-28T02:40:45;11.98;;;5.03;;
51566;SDS011;37657;53.182;5.638;2023-12-28T02:43:12;18.30;;;5.65;;
51566;SDS011;37657;53.182;5.638;2023-12-28T02:45:38;18.20;;;6.60;;
51566;SDS011;37657;53.182;5.638;2023-12-28T02:48:05;15.07;;;5.95;;
51566;SDS011;37657;53.182;5.638;2023-12-28T02:50:31;15.95;;;7.35;;
51566;SDS011;37657;53.182;5.638;2023-12-28T02:52:57;14.30;;;5.80;;
51566;SDS011;37657;53.182;5.638;2023-12-28T02:55:23;9.98;;;4.60;;
51566;SDS011;37657;53.182;5.638;2023-12-28T02:57:50;12.35;;;4.78;;
51566;SDS011;37657;53.182;5.638;2023-12-28T03:00:17;12.00;;;4.30;;
51566;SDS011;37657;53.182;5.638;2023-12-28T03:02:42;15.90;;;6.25;;
51566;SDS011;37657;53.182;5.638;2023-12-28T03:05:08;14.15;;;5.25;;
51566;SDS011;37657;53.182;5.638;2023-12-28T03:07:34;23.98;;;6.13;;
51566;SDS011;37657;53.182;5.638;2023-12-28T03:10:01;15.57;;;5.15;;
51566;SDS011;37657;53.182;5.638;2023-12-28T03:12:28;13.68;;;5.60;;
51566;SDS011;37657;53.182;5.638;2023-12-28T03:14:54;26.02;;;5.50;;
51566;SDS011;37657;53.182;5.638;2023-12-28T03:17:20;16.48;;;5.80;;
51566;SDS011;37657;53.182;5.638;2023-12-28T03:19:46;24.23;;;6.10;;
51566;SDS011;37657;53.182;5.638;2023-12-28T03:22:11;9.02;;;4.75;;
51566;SDS011;37657;53.182;5.638;2023-12-28T03:24:37;8.63;;;4.47;;
51566;SDS011;37657;53.182;5.638;2023-12-28T03:27:04;14.38;;;5.60;;
51566;SDS011;37657;53.182;5.638;2023-12-28T03:29:30;10.50;;;5.50;;
51566;SDS011;37657;53.182;5.638;2023-12-28T03:31:56;16.13;;;6.20;;
51566;SDS011;37657;53.182;5.638;2023-12-28T03:34:22;13.80;;;6.53;;
51566;SDS011;37657;53.182;5.638;2023-12-28T03:36:48;23.38;;;6.70;;
51566;SDS011;37657;53.182;5.638;2023-12-28T03:39:14;7.30;;;4.30;;
51566;SDS011;37657;53.182;5.638;2023-12-28T03:41:40;12.70;;;5.75;;
51566;SDS011;37657;53.182;5.638;2023-12-28T03:44:06;12.32;;;5.75;;
51566;SDS011;37657;53.182;5.638;2023-12-28T03:46:31;11.50;;;4.65;;
51566;SDS011;37657;53.182;5.638;2023-12-28T03:48:57;19.77;;;6.53;;
51566;SDS011;37657;53.182;5.638;2023-12-28T03:51:23;11.55;;;5.03;;
51566;SDS011;37657;53.182;5.638;2023-12-28T03:53:48;18.52;;;4.10;;
51566;SDS011;37657;53.182;5.638;2023-12-28T03:56:18;12.50;;;5.75;;
51566;SDS011;37657;53.182;5.638;2023-12-28T03:58:45;19.27;;;6.22;;
51566;SDS011;37657;53.182;5.638;2023-12-28T04:01:11;12.65;;;4.82;;
51566;SDS011;37657;53.182;5.638;2023-12-28T04:03:36;14.70;;;5.72;;
51566;SDS011;37657;53.182;5.638;2023-12-28T04:06:02;10.07;;;5.10;;
51566;SDS011;37657;53.182;5.638;2023-12-28T04:08:28;12.38;;;4.72;;
51566;SDS011;37657;53.182;5.638;2023-12-28T04:10:53;9.75;;;4.50;;
51566;SDS011;37657;53.182;5.638;2023-12-28T04:13:19;15.55;;;6.70;;
51566;SDS011;37657;53.182;5.638;2023-12-28T04:15:44;14.00;;;5.50;;
51566;SDS011;37657;53.182;5.638;2023-12-28T04:18:10;13.10;;;5.78;;
51566;SDS011;37657;53.182;5.638;2023-12-28T04:20:36;11.18;;;4.88;;
51566;SDS011;37657;53.182;5.638;2023-12-28T04:23:01;19.70;;;5.78;;
51566;SDS011;37657;53.182;5.638;2023-12-28T04:25:27;13.00;;;5.00;;
51566;SDS011;37657;53.182;5.638;2023-12-28T04:27:53;13.55;;;5.63;;
51566;SDS011;37657;53.182;5.638;2023-12-28T04:30:18;12.10;;;6.38;;
51566;SDS011;37657;53.182;5.638;2023-12-28T04:32:44;25.27;;;7.35;;
51566;SDS011;37657;53.182;5.638;2023-12-28T04:35:09;14.30;;;7.18;;
51566;SDS011;37657;53.182;5.638;2023-12-28T04:37:35;15.65;;;7.55;;
51566;SDS011;37657;53.182;5.638;2023-12-28T04:40:01;17.00;;;6.25;;
51566;SDS011;37657;53.182;5.638;2023-12-28T04:42:29;14.02;;;5.75;;
51566;SDS011;37657;53.182;5.638;2023-12-28T04:44:54;15.10;;;7.30;;
51566;SDS011;37657;53.182;5.638;2023-12-28T04:47:20;13.23;;;5.93;;
51566;SDS011;37657;53.182;5.638;2023-12-28T04:49:46;18.73;;;6.68;;
51566;SDS011;37657;53.182;5.638;2023-12-28T04:52:11;13.52;;;6.35;;
51566;SDS011;37657;53.182;5.638;2023-12-28T04:54:40;17.30;;;6.28;;
51566;SDS011;37657;53.182;5.638;2023-12-28T04:57:05;23.80;;;6.93;;
51566;SDS011;37657;53.182;5.638;2023-12-28T04:59:37;17.70;;;6.57;;
51566;SDS011;37657;53.182;5.638;2023-12-28T05:02:06;19.13;;;4.88;;
51566;SDS011;37657;53.182;5.638;2023-12-28T05:04:32;10.48;;;5.80;;
51566;SDS011;37657;53.182;5.638;2023-12-28T05:06:58;20.48;;;7.00;;
51566;SDS011;37657;53.182;5.638;2023-12-28T05:09:24;13.20;;;6.13;;
51566;SDS011;37657;53.182;5.638;2023-12-28T05:11:50;12.95;;;6.45;;
51566;SDS011;37657;53.182;5.638;2023-12-28T05:14:15;15.32;;;5.88;;
51566;SDS011;37657;53.182;5.638;2023-12-28T05:16:41;16.13;;;6.03;;
51566;SDS011;37657;53.182;5.638;2023-12-28T05:19:06;27.10;;;8.70;;
51566;SDS011;37657;53.182;5.638;2023-12-28T05:21:33;18.83;;;6.63;;
51566;SDS011;37657;53.182;5.638;2023-12-28T05:23:59;22.00;;;8.00;;
51566;SDS011;37657;53.182;5.638;2023-12-28T05:26:25;19.40;;;7.32;;
51566;SDS011;37657;53.182;5.638;2023-12-28T05:28:51;15.93;;;8.43;;
51566;SDS011;37657;53.182;5.638;2023-12-28T05:31:17;14.77;;;6.75;;
51566;SDS011;37657;53.182;5.638;2023-12-28T05:33:42;20.90;;;7.88;;
51566;SDS011;37657;53.182;5.638;2023-12-28T05:36:08;16.10;;;7.22;;
51566;SDS011;37657;53.182;5.638;2023-12-28T05:38:34;12.07;;;6.25;;
51566;SDS011;37657;53.182;5.638;2023-12-28T05:40:59;15.60;;;7.15;;
51566;SDS011;37657;53.182;5.638;2023-12-28T05:43:25;21.80;;;7.97;;
51566;SDS011;37657;53.182;5.638;2023-12-28T05:45:50;20.48;;;8.30;;
51566;SDS011;37657;53.182;5.638;2023-12-28T05:48:16;16.00;;;7.50;;
51566;SDS011;37657;53.182;5.638;2023-12-28T05:50:42;14.48;;;7.28;;
51566;SDS011;37657;53.182;5.638;2023-12-28T05:53:07;16.20;;;6.85;;
51566;SDS011;37657;53.182;5.638;2023-12-28T05:55:39;25.67;;;8.13;;
51566;SDS011;37657;53.182;5.638;2023-12-28T05:58:08;19.02;;;7.35;;
51566;SDS011;37657;53.182;5.638;2023-12-28T06:00:37;18.90;;;7.28;;
51566;SDS011;37657;53.182;5.638;2023-12-28T06:03:04;13.13;;;5.57;;
51566;SDS011;37657;53.182;5.638;2023-12-28T06:05:30;47.60;;;9.15;;
51566;SDS011;37657;53.182;5.638;2023-12-28T06:07:55;12.75;;;5.75;;
51566;SDS011;37657;53.182;5.638;2023-12-28T06:10:21;14.80;;;5.80;;
51566;SDS011;37657;53.182;5.638;2023-12-28T06:12:47;21.02;;;7.35;;
51566;SDS011;37657;53.182;5.638;2023-12-28T06:15:13;29.95;;;7.57;;
51566;SDS011;37657;53.182;5.638;2023-12-28T06:17:39;20.98;;;7.57;;
51566;SDS011;37657;53.182;5.638;2023-12-28T06:20:04;35.97;;;8.60;;
51566;SDS011;37657;53.182;5.638;2023-12-28T06:22:30;15.30;;;7.13;;
51566;SDS011;37657;53.182;5.638;2023-12-28T06:24:56;22.45;;;6.65;;
51566;SDS011;37657;53.182;5.638;2023-12-28T06:27:22;18.20;;;8.00;;
51566;SDS011;37657;53.182;5.638;2023-12-28T06:29:51;14.77;;;7.05;;
51566;SDS011;37657;53.182;5.638;2023-12-28T06:32:16;16.65;;;7.88;;
51566;SDS011;37657;53.182;5.638;2023-12-28T06:34:42;16.58;;;8.20;;
51566;SDS011;37657;53.182;5.638;2023-12-28T06:37:08;20.00;;;7.97;;
51566;SDS011;37657;53.182;5.638;2023-12-28T06:39:33;24.33;;;8.30;;
51566;SDS011;37657;53.182;5.638;2023-12-28T06:41:59;18.10;;;7.38;;
51566;SDS011;37657;53.182;5.638;2023-12-28T06:44:24;25.55;;;8.75;;
51566;SDS011;37657;53.182;5.638;2023-12-28T06:46:50;14.60;;;7.28;;
51566;SDS011;37657;53.182;5.638;2023-12-28T06:49:16;22.88;;;7.97;;
51566;SDS011;37657;53.182;5.638;2023-12-28T06:51:41;23.55;;;8.43;;
51566;SDS011;37657;53.182;5.638;2023-12-28T06:54:10;14.50;;;8.27;;
51566;SDS011;37657;53.182;5.638;2023-12-28T06:56:35;25.17;;;10.73;;
51566;SDS011;37657;53.182;5.638;2023-12-28T06:59:01;18.55;;;7.90;;
51566;SDS011;37657;53.182;5.638;2023-12-28T07:01:26;28.92;;;8.38;;
51566;SDS011;37657;53.182;5.638;2023-12-28T07:03:52;18.27;;;9.30;;
51566;SDS011;37657;53.182;5.638;2023-12-28T07:06:18;31.20;;;9.05;;
51566;SDS011;37657;53.182;5.638;2023-12-28T07:08:43;21.52;;;7.43;;
51566;SDS011;37657;53.182;5.638;2023-12-28T07:11:09;16.73;;;8.88;;
51566;SDS011;37657;53.182;5.638;2023-12-28T07:13:35;22.42;;;8.70;;
51566;SDS011;37657;53.182;5.638;2023-12-28T07:16:01;20.20;;;8.95;;
51566;SDS011;37657;53.182;5.638;2023-12-28T07:18:27;23.85;;;10.00;;
51566;SDS011;37657;53.182;5.638;2023-12-28T07:20:53;49.42;;;11.77;;
51566;SDS011;37657;53.182;5.638;2023-12-28T07:23:19;32.53;;;10.45;;
51566;SDS011;37657;53.182;5.638;2023-12-28T07:25:44;21.75;;;8.60;;
51566;SDS011;37657;53.182;5.638;2023-12-28T07:28:10;21.48;;;7.82;;
51566;SDS011;37657;53.182;5.638;2023-12-28T07:30:37;33.53;;;10.45;;
51566;SDS011;37657;53.182;5.638;2023-12-28T07:33:03;26.08;;;10.32;;
51566;SDS011;37657;53.182;5.638;2023-12-28T07:35:29;25.58;;;10.15;;
51566;SDS011;37657;53.182;5.638;2023-12-28T07:37:54;19.88;;;8.70;;
51566;SDS011;37657;53.182;5.638;2023-12-28T07:40:20;20.73;;;9.73;;
51566;SDS011;37657;53.182;5.638;2023-12-28T07:42:46;20.85;;;10.80;;
51566;SDS011;37657;53.182;5.638;2023-12-28T07:45:11;29.65;;;11.35;;
51566;SDS011;37657;53.182;5.638;2023-12-28T07:47:37;29.20;;;12.00;;
51566;SDS011;37657;53.182;5.638;2023-12-28T07:50:03;24.73;;;9.95;;
51566;SDS011;37657;53.182;5.638;2023-12-28T07:52:29;31.88;;;13.05;;
51566;SDS011;37657;53.182;5.638;2023-12-28T07:54:55;25.77;;;9.27;;
51566;SDS011;37657;53.182;5.638;2023-12-28T07:57:20;22.02;;;9.40;;
51566;SDS011;37657;53.182;5.638;2023-12-28T07:59:46;29.08;;;11.82;;
51566;SDS011;37657;53.182;5.638;2023-12-28T08:02:12;37.00;;;11.25;;
51566;SDS011;37657;53.182;5.638;2023-12-28T08:04:37;22.85;;;10.80;;
51566;SDS011;37657;53.182;5.638;2023-12-28T08:07:03;27.20;;;11.32;;
51566;SDS011;37657;53.182;5.638;2023-12-28T08:09:29;29.55;;;11.57;;
51566;SDS011;37657;53.182;5.638;2023-12-28T08:11:55;19.55;;;10.80;;
51566;SDS011;37657;53.182;5.638;2023-12-28T08:14:21;26.08;;;12.07;;
51566;SDS011;37657;53.182;5.638;2023-12-28T08:16:46;24.23;;;12.20;;
51566;SDS011;37657;53.182;5.638;2023-12-28T08:19:12;29.40;;;13.18;;
51566;SDS011;37657;53.182;5.638;2023-12-28T08:21:38;22.30;;;11.63;;
51566;SDS011;37657;53.182;5.638;2023-12-28T08:24:04;43.28;;;11.13;;
51566;SDS011;37657;53.182;5.638;2023-12-28T08:26:30;35.42;;;12.05;;
51566;SDS011;37657;53.182;5.638;2023-12-28T08:28:57;37.78;;;12.07;;
51566;SDS011;37657;53.182;5.638;2023-12-28T08:31:23;25.73;;;11.73;;
51566;SDS011;37657;53.182;5.638;2023-12-28T08:33:49;25.92;;;11.60;;
51566;SDS011;37657;53.182;5.638;2023-12-28T08:36:15;26.95;;;11.07;;
51566;SDS011;37657;53.182;5.638;2023-12-28T08:38:42;28.85;;;11.10;;
51566;SDS011;37657;53.182;5.638;2023-12-28T08:41:17;27.48;;;9.90;;
51566;SDS011;37657;53.182;5.638;2023-12-28T08:43:46;28.80;;;12.48;;
51566;SDS011;37657;53.182;5.638;2023-12-28T08:46:13;29.02;;;11.10;;
51566;SDS011;37657;53.182;5.638;2023-12-28T08:48:39;30.92;;;12.35;;
51566;SDS011;37657;53.182;5.638;2023-12-28T08:51:06;28.88;;;11.52;;
51566;SDS011;37657;53.182;5.638;2023-12-28T08:53:31;23.83;;;10.43;;
51566;SDS011;37657;53.182;5.638;2023-12-28T08:55:57;46.88;;;13.00;;
51566;SDS011;37657;53.182;5.638;2023-12-28T08:58:23;20.80;;;9.70;;
51566;SDS011;37657;53.182;5.638;2023-12-28T09:00:48;21.90;;;9.52;;
51566;SDS011;37657;53.182;5.638;2023-12-28T09:03:15;54.17;;;13.32;;
51566;SDS011;37657;53.182;5.638;2023-12-28T09:05:40;28.23;;;10.50;;
51566;SDS011;37657;53.182;5.638;2023-12-28T09:08:06;31.55;;;11.70;;
51566;SDS011;37657;53.182;5.638;2023-12-28T09:10:33;41.42;;;12.48;;
51566;SDS011;37657;53.182;5.638;2023-12-28T09:12:58;32.53;;;11.77;;
51566;SDS011;37657;53.182;5.638;2023-12-28T09:15:24;16.15;;;10.10;;
51566;SDS011;37657;53.182;5.638;2023-12-28T09:17:50;22.00;;;10.05;;
51566;SDS011;37657;53.182;5.638;2023-12-28T09:20:15;32.53;;;12.43;;
51566;SDS011;37657;53.182;5.638;2023-12-28T09:22:41;44.60;;;13.77;;
51566;SDS011;37657;53.182;5.638;2023-12-28T09:25:07;39.53;;;10.50;;
51566;SDS011;37657;53.182;5.638;2023-12-28T09:27:33;23.48;;;8.77;;
51566;SDS011;37657;53.182;5.638;2023-12-28T09:29:58;27.20;;;10.43;;
51566;SDS011;37657;53.182;5.638;2023-12-28T09:32:24;26.75;;;10.25;;
51566;SDS011;37657;53.182;5.638;2023-12-28T09:34:49;34.30;;;12.55;;
51566;SDS011;37657;53.182;5.638;2023-12-28T09:37:15;27.10;;;10.23;;
51566;SDS011;37657;53.182;5.638;2023-12-28T09:39:41;17.63;;;8.65;;
51566;SDS011;37657;53.182;5.638;2023-12-28T09:42:14;25.35;;;9.05;;
51566;SDS011;37657;53.182;5.638;2023-12-28T09:44:44;18.08;;;9.20;;
51566;SDS011;37657;53.182;5.638;2023-12-28T09:47:10;29.42;;;9.43;;
51566;SDS011;37657;53.182;5.638;2023-12-28T09:49:38;26.40;;;9.65;;
51566;SDS011;37657;53.182;5.638;2023-12-28T09:52:05;44.03;;;12.43;;
51566;SDS011;37657;53.182;5.638;2023-12-28T09:54:31;26.92;;;11.75;;
51566;SDS011;37657;53.182;5.638;2023-12-28T09:56:57;19.90;;;10.00;;
51566;SDS011;37657;53.182;5.638;2023-12-28T09:59:23;29.55;;;9.93;;
51566;SDS011;37657;53.182;5.638;2023-12-28T10:01:50;21.75;;;8.40;;
51566;SDS011;37657;53.182;5.638;2023-12-28T10:04:16;26.55;;;9.27;;
51566;SDS011;37657;53.182;5.638;2023-12-28T10:06:42;27.80;;;9.43;;
51566;SDS011;37657;53.182;5.638;2023-12-28T10:09:08;12.35;;;7.60;;
51566;SDS011;37657;53.182;5.638;2023-12-28T10:11:34;23.98;;;7.90;;
51566;SDS011;37657;53.182;5.638;2023-12-28T10:13:59;23.85;;;10.38;;
51566;SDS011;37657;53.182;5.638;2023-12-28T10:16:25;18.55;;;7.95;;
51566;SDS011;37657;53.182;5.638;2023-12-28T10:18:51;16.58;;;8.13;;
51566;SDS011;37657;53.182;5.638;2023-12-28T10:21:17;31.90;;;9.85;;
51566;SDS011;37657;53.182;5.638;2023-12-28T10:23:42;18.38;;;8.57;;
51566;SDS011;37657;53.182;5.638;2023-12-28T10:26:08;34.10;;;9.60;;
51566;SDS011;37657;53.182;5.638;2023-12-28T10:28:34;37.10;;;12.10;;
51566;SDS011;37657;53.182;5.638;2023-12-28T10:31:03;20.35;;;9.63;;
51566;SDS011;37657;53.182;5.638;2023-12-28T10:33:33;22.65;;;7.88;;
51566;SDS011;37657;53.182;5.638;2023-12-28T10:36:00;22.60;;;9.63;;
51566;SDS011;37657;53.182;5.638;2023-12-28T10:38:34;30.88;;;10.70;;
51566;SDS011;37657;53.182;5.638;2023-12-28T10:41:06;19.98;;;7.97;;
51566;SDS011;37657;53.182;5.638;2023-12-28T10:44:19;22.83;;;6.85;;
51566;SDS011;37657;53.182;5.638;2023-12-28T10:46:30;26.93;;;9.13;;
51566;SDS011;37657;53.182;5.638;2023-12-28T10:49:16;48.65;;;11.60;;
51566;SDS011;37657;53.182;5.638;2023-12-28T10:51:42;24.45;;;9.73;;
51566;SDS011;37657;53.182;5.638;2023-12-28T10:56:47;19.25;;;8.50;;
51566;SDS011;37657;53.182;5.638;2023-12-28T11:02:20;24.80;;;9.75;;
51566;SDS011;37657;53.182;5.638;2023-12-28T11:04:50;16.38;;;8.45;;
51566;SDS011;37657;53.182;5.638;2023-12-28T11:07:19;21.50;;;7.75;;
51566;SDS011;37657;53.182;5.638;2023-12-28T11:09:46;18.67;;;9.05;;
51566;SDS011;37657;53.182;5.638;2023-12-28T11:12:13;19.77;;;10.10;;
51566;SDS011;37657;53.182;5.638;2023-12-28T11:14:43;20.77;;;8.93;;
51566;SDS011;37657;53.182;5.638;2023-12-28T11:17:10;24.23;;;8.93;;
51566;SDS011;37657;53.182;5.638;2023-12-28T11:19:36;18.17;;;9.18;;
51566;SDS011;37657;53.182;5.638;2023-12-28T11:22:03;43.08;;;9.75;;
51566;SDS011;37657;53.182;5.638;2023-12-28T11:24:30;18.65;;;7.50;;
51566;SDS011;37657;53.182;5.638;2023-12-28T11:26:57;29.42;;;11.85;;
51566;SDS011;37657;53.182;5.638;2023-12-28T11:29:23;21.98;;;9.13;;
51566;SDS011;37657;53.182;5.638;2023-12-28T11:31:52;17.20;;;8.48;;
51566;SDS011;37657;53.182;5.638;2023-12-28T11:34:24;33.88;;;9.63;;
51566;SDS011;37657;53.182;5.638;2023-12-28T11:36:57;28.25;;;8.88;;
51566;SDS011;37657;53.182;5.638;2023-12-28T11:39:34;29.35;;;11.90;;
51566;SDS011;37657;53.182;5.638;2023-12-28T11:42:04;22.00;;;8.98;;
51566;SDS011;37657;53.182;5.638;2023-12-28T11:44:31;37.22;;;11.75;;
51566;SDS011;37657;53.182;5.638;2023-12-28T11:47:16;22.92;;;9.25;;
51566;SDS011;37657;53.182;5.638;2023-12-28T11:49:45;30.90;;;12.02;;
51566;SDS011;37657;53.182;5.638;2023-12-28T11:52:26;22.00;;;8.52;;
51566;SDS011;37657;53.182;5.638;2023-12-28T11:54:53;24.42;;;9.95;;
51566;SDS011;37657;53.182;5.638;2023-12-28T11:57:18;22.40;;;9.73;;
51566;SDS011;37657;53.182;5.638;2023-12-28T11:59:44;27.38;;;10.95;;
51566;SDS011;37657;53.182;5.638;2023-12-28T12:02:10;20.05;;;7.97;;
51566;SDS011;37657;53.182;5.638;2023-12-28T12:04:36;24.00;;;9.38;;
51566;SDS011;37657;53.182;5.638;2023-12-28T12:07:02;18.77;;;9.95;;
51566;SDS011;37657;53.182;5.638;2023-12-28T12:09:29;22.20;;;9.35;;
51566;SDS011;37657;53.182;5.638;2023-12-28T12:11:59;25.40;;;9.95;;
51566;SDS011;37657;53.182;5.638;2023-12-28T12:14:29;22.08;;;8.70;;
51566;SDS011;37657;53.182;5.638;2023-12-28T12:16:56;20.90;;;10.30;;
51566;SDS011;37657;53.182;5.638;2023-12-28T12:19:23;38.10;;;13.15;;
51566;SDS011;37657;53.182;5.638;2023-12-28T12:21:51;23.63;;;8.23;;
51566;SDS011;37657;53.182;5.638;2023-12-28T12:24:18;28.83;;;11.43;;
51566;SDS011;37657;53.182;5.638;2023-12-28T12:26:45;22.27;;;9.25;;
51566;SDS011;37657;53.182;5.638;2023-12-28T12:29:11;26.95;;;10.95;;
51566;SDS011;37657;53.182;5.638;2023-12-28T12:31:39;21.30;;;9.98;;
51566;SDS011;37657;53.182;5.638;2023-12-28T12:34:07;28.63;;;9.77;;
51566;SDS011;37657;53.182;5.638;2023-12-28T12:36:34;23.85;;;8.57;;
51566;SDS011;37657;53.182;5.638;2023-12-28T12:39:00;49.47;;;11.00;;
51566;SDS011;37657;53.182;5.638;2023-12-28T12:41:26;33.05;;;10.40;;
51566;SDS011;37657;53.182;5.638;2023-12-28T12:43:52;25.10;;;9.25;;
51566;SDS011;37657;53.182;5.638;2023-12-28T12:46:21;16.35;;;8.35;;
51566;SDS011;37657;53.182;5.638;2023-12-28T12:48:55;24.95;;;10.27;;
51566;SDS011;37657;53.182;5.638;2023-12-28T12:51:27;16.58;;;7.38;;
51566;SDS011;37657;53.182;5.638;2023-12-28T12:53:57;18.80;;;9.32;;
51566;SDS011;37657;53.182;5.638;2023-12-28T12:56:26;35.53;;;11.35;;
51566;SDS011;37657;53.182;5.638;2023-12-28T12:58:55;33.95;;;8.38;;
51566;SDS011;37657;53.182;5.638;2023-12-28T13:01:22;21.23;;;10.38;;
51566;SDS011;37657;53.182;5.638;2023-12-28T13:03:49;19.80;;;8.88;;
51566;SDS011;37657;53.182;5.638;2023-12-28T13:06:16;26.60;;;10.55;;
51566;SDS011;37657;53.182;5.638;2023-12-28T13:08:41;26.67;;;9.57;;
51566;SDS011;37657;53.182;5.638;2023-12-28T13:11:07;19.35;;;8.80;;
51566;SDS011;37657;53.182;5.638;2023-12-28T13:13:33;20.85;;;8.00;;
51566;SDS011;37657;53.182;5.638;2023-12-28T13:16:00;34.13;;;10.30;;
51566;SDS011;37657;53.182;5.638;2023-12-28T13:18:25;23.50;;;8.60;;
51566;SDS011;37657;53.182;5.638;2023-12-28T13:20:51;17.38;;;8.15;;
51566;SDS011;37657;53.182;5.638;2023-12-28T13:23:17;30.88;;;8.85;;
51566;SDS011;37657;53.182;5.638;2023-12-28T13:25:42;23.95;;;8.88;;
51566;SDS011;37657;53.182;5.638;2023-12-28T13:28:09;25.52;;;8.68;;
51566;SDS011;37657;53.182;5.638;2023-12-28T13:30:35;15.55;;;8.25;;
51566;SDS011;37657;53.182;5.638;2023-12-28T13:33:02;16.08;;;8.05;;
51566;SDS011;37657;53.182;5.638;2023-12-28T13:35:28;31.70;;;10.50;;
51566;SDS011;37657;53.182;5.638;2023-12-28T13:37:54;32.40;;;11.50;;
51566;SDS011;37657;53.182;5.638;2023-12-28T13:40:20;21.10;;;8.65;;
51566;SDS011;37657;53.182;5.638;2023-12-28T13:42:45;16.20;;;8.18;;
51566;SDS011;37657;53.182;5.638;2023-12-28T13:45:11;17.60;;;9.45;;
51566;SDS011;37657;53.182;5.638;2023-12-28T13:47:37;19.60;;;9.15;;
51566;SDS011;37657;53.182;5.638;2023-12-28T13:50:03;25.23;;;9.27;;
51566;SDS011;37657;53.182;5.638;2023-12-28T13:52:31;34.70;;;10.50;;
51566;SDS011;37657;53.182;5.638;2023-12-28T13:54:57;23.50;;;9.32;;
51566;SDS011;37657;53.182;5.638;2023-12-28T13:57:22;22.30;;;7.65;;
51566;SDS011;37657;53.182;5.638;2023-12-28T13:59:48;18.20;;;7.93;;
51566;SDS011;37657;53.182;5.638;2023-12-28T14:02:14;18.25;;;8.48;;
51566;SDS011;37657;53.182;5.638;2023-12-28T14:04:39;15.27;;;7.05;;
51566;SDS011;37657;53.182;5.638;2023-12-28T14:07:05;18.90;;;8.30;;
51566;SDS011;37657;53.182;5.638;2023-12-28T14:09:30;16.55;;;6.88;;
51566;SDS011;37657;53.182;5.638;2023-12-28T14:11:58;19.95;;;7.88;;
51566;SDS011;37657;53.182;5.638;2023-12-28T14:14:24;14.45;;;7.20;;
51566;SDS011;37657;53.182;5.638;2023-12-28T14:16:49;27.52;;;7.20;;
51566;SDS011;37657;53.182;5.638;2023-12-28T14:19:15;23.40;;;7.68;;
51566;SDS011;37657;53.182;5.638;2023-12-28T14:21:40;18.45;;;7.75;;
51566;SDS011;37657;53.182;5.638;2023-12-28T14:24:07;24.98;;;7.25;;
51566;SDS011;37657;53.182;5.638;2023-12-28T14:26:33;14.18;;;7.93;;
51566;SDS011;37657;53.182;5.638;2023-12-28T14:28:59;17.40;;;7.25;;
51566;SDS011;37657;53.182;5.638;2023-12-28T14:31:29;21.13;;;7.90;;
51566;SDS011;37657;53.182;5.638;2023-12-28T14:33:54;17.60;;;8.23;;
51566;SDS011;37657;53.182;5.638;2023-12-28T14:36:30;17.38;;;7.70;;